Terminal Aerodrome Forecast
Issued by NWS

Current Version | Previous Version | Text Only | Print | Product List | Glossary On
Versions: 1 2 3 4 5 6 7 8 9 10 11 12 13 14 15 16 17 18
000
FTUS41 KBTV 261731
TAFMSS
TAF
KMSS 261731Z 2618/2718 25006KT P6SM SCT045 BKN070
     FM262100 22004KT P6SM VCSH SCT050 BKN080
      TEMPO 2621/2624 5SM -SHRA BR BKN050
     FM270000 VRB03KT P6SM VCSH SCT045 BKN070
     FM270300 21004KT P6SM FEW050 BKN080
     FM271500 23007KT 4SM -SHRA BR BKN050=

USA.gov is the U.S. government's official web portal to all federal, state and local government web resources and services.